Detall de PIREP

Printer-friendly versionPDF version

[2012/10/13 16:32:00]
Flight IATA:CT1001
Pilot Number:026
Company ICAO:CAT
Aircraft Type:F50/A
PAX:50
Aircraft Registration:PAOB
Departing Airport: LIEA
Destination Airport: LEIB
Alternate Airport:LEPA
Online: VATSIM
Route:SUPUX UZ924 RIPAL UM603 MORSS
Flight Level:F250
No Slew and time accel
No pause
Crash detect
Detect pilot in Cockpit between each 30 and 45 minutes
16:32 Zero fuel Weight: 38930 Lbs, Fuel Weight: 3747 Lbs
16:32 VATSIM:LIEA 131550Z 28006KT 250V320 CAVOK 20/14 Q1011
16:32 VATSIM:LEIB 131600Z VRB02KT 9999 FEW030 21/17 Q1013 NOSIG
16:32 VOICE CATALONIAN / MEDITERRANEAN ODYSSEY LEG5
16:33 Parking Brakes off
16:38 Take-off
16:38 Take off Weight: 42603 Lbs
16:38 Wind: 281º @ 006 Knots Heading: 204º
16:38 POS N40º 37´ 58´´ E008º 17´ 28´´
16:38 Flaps:2 at 112 Knots
16:39 Gear Up: 117 Knots
16:40 Flaps:1 at 110 Knots
16:43 Flaps:0 at 157 Knots
16:53 Wind:286º@015 Knots Heading: 261º Ground Speed: 244 Knots Altitude 17040 ft
17:01 TOC
17:01 Fuel Weight: 2702 Lb
17:08 Wind:349º@016 Knots Heading: 262º Ground Speed: 279 Knots Altitude 24940 ft
17:23 Wind:359º@032 Knots Heading: 260º Ground Speed: 289 Knots Altitude 24993 ft
17:33 TOD
17:33 Fuel Weight: 1761 Lb
17:38 Wind:348º@000 Knots Heading: 250º Ground Speed: 296 Knots Altitude 19662 ft
17:53 Wind:236º@000 Knots Heading: 237º Ground Speed: 180 Knots Altitude 2946 ft
17:56 Gear Down: 167 Knots
17:57 Flaps:1 at 165 Knots
17:58 Flaps:2 at 153 Knots
17:59 Flaps:3 at 137 Knots
18:00 TouchDown:Rate -188 ft/min Speed: 118 Knots
18:00 VATSIM:LEIB 131730Z 00000KT 9999 SCT020 20/18 Q1013 NOSIG
18:00 Land
18:00 Wind:217º@002 Knots
18:00 Heading: 242º
18:00 Flight Duration: 01:22
18:00 Landing Weight: 40116 Lbs
18:00 POS N38º 52´ 08´´ E001º 21´ 50´´
18:05 Parking brakes on
18:05 Block to Block Duration: 01:32
18:05 Final Fuel: 1137 Lbls
18:05 Spent Fuel: 2610 Lbls
18:05 Flight Length: 341 NM
18:05 TOD Land Length: 108 NM

Exportar CSV

Powered by Drupal - Modified by Danger4k